Terminal Aerodrome Forecast
Issued by NWS

Home | Current Version | Previous Version | Text Only | Print | Product List | Glossary On
Versions: 1 2 3 4 5 6 7 8 9 10 11 12 13 14 15 16
000
FTUS46 KSEW 242300
TAFPAE
TAF
KPAE 242320Z 2500/2524 24006KT P6SM BKN018 OVC040
     FM250500 VRB04KT P6SM OVC015
     FM251200 16003KT 5SM -DZ BR OVC011
      TEMPO 2513/2517 3SM -DZ BR OVC006
     FM251900 20005KT P6SM OVC018
     FM252200 22007KT P6SM BKN025 BKN045=

USA.gov is the U.S. government's official web portal to all federal, state and local government web resources and services.